createdAt,value
2023-04-18T00:00:16.408Z,95846.7656
2023-04-18T00:01:18.055Z,95845.5391
2023-04-18T00:02:19.875Z,95845.7656
2023-04-18T00:03:21.561Z,95844.6953
2023-04-18T00:04:23.266Z,95843.0000
2023-04-18T00:05:24.812Z,95843.0000
2023-04-18T00:06:26.292Z,95846.5391
2023-04-18T00:07:27.932Z,95844.0000
2023-04-18T00:08:29.625Z,95841.6172
2023-04-18T00:09:31.262Z,95838.7656
2023-04-18T00:10:32.939Z,95838.7656
2023-04-18T00:11:34.542Z,95841.7656
2023-04-18T00:12:36.184Z,95844.4609
2023-04-18T00:13:37.836Z,95840.4609
2023-04-18T00:14:39.454Z,95841.9219
2023-04-18T00:15:41.094Z,95841.4609
2023-04-18T00:16:42.752Z,95841.8438
2023-04-18T00:17:44.445Z,95842.8438
2023-04-18T00:18:46.157Z,95842.6953
2023-04-18T00:19:47.737Z,95842.9219
2023-04-18T00:20:49.452Z,95842.7656
2023-04-18T00:21:51.015Z,95841.4609
2023-04-18T00:22:52.689Z,95845.7656
2023-04-18T00:23:54.391Z,95842.9219
2023-04-18T00:24:56.014Z,95844.0000
2023-04-18T00:25:57.643Z,95842.6172
2023-04-18T00:26:59.250Z,95841.6953
2023-04-18T00:28:00.975Z,95842.7656
2023-04-18T00:29:02.618Z,95843.0000
2023-04-18T00:30:04.210Z,95837.1562
2023-04-18T00:31:05.830Z,95840.1562
2023-04-18T00:32:07.413Z,95836.0781
2023-04-18T00:33:09.044Z,95838.0781
2023-04-18T00:34:10.728Z,95834.3828
2023-04-18T00:35:12.401Z,95834.6953
2023-04-18T00:36:14.004Z,95833.6172
2023-04-18T00:37:15.624Z,95841.9219
2023-04-18T00:38:17.294Z,95840.9219
2023-04-18T00:39:18.945Z,95838.4609
2023-04-18T00:40:20.578Z,95837.5391
2023-04-18T00:41:22.234Z,95838.5391
2023-04-18T00:42:23.870Z,95836.6172
2023-04-18T00:43:25.514Z,95837.7656
2023-04-18T00:44:27.171Z,95836.7656
2023-04-18T00:45:28.794Z,95838.3828
2023-04-18T00:46:30.553Z,95838.0000
2023-04-18T00:47:32.120Z,95837.0000
2023-04-18T00:48:33.732Z,95835.0781
2023-04-18T00:49:35.421Z,95835.1562
2023-04-18T00:50:37.021Z,95837.1562
2023-04-18T00:51:38.675Z,95836.3828
2023-04-18T00:52:40.315Z,95834.0000
2023-04-18T00:53:42.005Z,95833.9219
2023-04-18T00:54:43.638Z,95831.9219
2023-04-18T00:55:45.244Z,95832.2344
2023-04-18T00:56:46.905Z,95834.0781
2023-04-18T00:57:48.513Z,95836.4609
2023-04-18T00:58:50.157Z,95832.0000
2023-04-18T00:59:51.832Z,95831.3828
2023-04-18T01:00:53.454Z,95829.7656
2023-04-18T01:01:55.232Z,95831.4609
2023-04-18T01:02:56.860Z,95831.0781
2023-04-18T01:03:58.527Z,95830.4609
2023-04-18T01:05:00.060Z,95827.7656
2023-04-18T01:06:02.666Z,95828.0000
2023-04-18T01:07:03.373Z,95827.0000
2023-04-18T01:08:05.062Z,95826.1562
2023-04-18T01:09:06.589Z,95824.6953
2023-04-18T01:10:08.276Z,95823.0000
2023-04-18T01:11:09.881Z,95822.7656
2023-04-18T01:12:11.521Z,95823.6953
2023-04-18T01:13:13.160Z,95821.9219
2023-04-18T01:14:15.093Z,95820.4609
2023-04-18T01:15:16.455Z,95819.3828
2023-04-18T01:16:18.105Z,95818.2344
2023-04-18T01:17:19.757Z,95818.0781
2023-04-18T01:18:21.385Z,95818.9219
2023-04-18T01:19:23.025Z,95819.8438
2023-04-18T01:20:24.689Z,95820.6953
2023-04-18T01:21:26.286Z,95821.1562
2023-04-18T01:22:27.931Z,95817.7656
2023-04-18T01:23:29.588Z,95818.3828
2023-04-18T01:24:31.242Z,95818.3047
2023-04-18T01:25:32.890Z,95818.2344
2023-04-18T01:26:34.482Z,95813.4609
2023-04-18T01:27:36.142Z,95812.0781
2023-04-18T01:28:37.809Z,95811.7656
2023-04-18T01:29:39.457Z,95811.6953
2023-04-18T01:30:41.060Z,95808.9219
2023-04-18T01:31:42.899Z,95807.3828
2023-04-18T01:32:44.489Z,95804.6953
2023-04-18T01:33:46.118Z,95805.8438
2023-04-18T01:34:47.773Z,95804.6953
2023-04-18T01:35:49.385Z,95803.3047
2023-04-18T01:36:51.035Z,95803.3828
2023-04-18T01:37:52.665Z,95805.9219
2023-04-18T01:38:54.301Z,95803.3047
2023-04-18T01:39:55.989Z,95802.8438
2023-04-18T01:40:57.581Z,95800.8438
2023-04-18T01:41:59.222Z,95799.6172
2023-04-18T01:43:00.890Z,95798.6172
2023-04-18T01:44:02.538Z,95797.1562
2023-04-18T01:45:04.208Z,95797.3828
2023-04-18T01:46:05.848Z,95796.0781
2023-04-18T01:47:07.466Z,95797.8438
2023-04-18T01:48:09.139Z,95794.9219
2023-04-18T01:49:10.775Z,95793.4609
2023-04-18T01:50:12.480Z,95794.3047
2023-04-18T01:51:14.023Z,95794.7656
2023-04-18T01:52:15.900Z,95793.3047
2023-04-18T01:53:17.337Z,95792.6172
2023-04-18T01:54:18.999Z,95793.6953
2023-04-18T01:55:20.684Z,95791.5391
2023-04-18T01:56:22.265Z,95791.7656
2023-04-18T01:57:23.920Z,95788.8438
2023-04-18T01:58:25.576Z,95791.6172
2023-04-18T01:59:27.238Z,95788.4609
2023-04-18T02:00:28.920Z,95788.2344
2023-04-18T02:01:30.513Z,95789.7656
2023-04-18T02:02:32.380Z,95788.6172
2023-04-18T02:03:34.074Z,95787.6953
2023-04-18T02:04:35.560Z,95787.6953
2023-04-18T02:05:37.242Z,95786.9219
2023-04-18T02:06:38.810Z,95788.0000
2023-04-18T02:07:40.492Z,95785.6172
2023-04-18T02:08:42.119Z,95784.3828
2023-04-18T02:09:43.813Z,95785.6953
2023-04-18T02:10:45.434Z,95784.6953
2023-04-18T02:11:47.106Z,95781.9219
2023-04-18T02:12:48.697Z,95782.2344
2023-04-18T02:13:50.335Z,95782.1562
2023-04-18T02:14:51.970Z,95781.6172
2023-04-18T02:15:53.634Z,95782.3047
2023-04-18T02:16:55.362Z,95779.4609
2023-04-18T02:17:56.947Z,95778.8438
2023-04-18T02:18:58.615Z,95780.3828
2023-04-18T02:20:00.193Z,95779.7656
2023-04-18T02:21:01.877Z,95779.3047
2023-04-18T02:22:03.451Z,95779.6172
2023-04-18T02:23:05.109Z,95780.6953
2023-04-18T02:24:06.738Z,95782.6953
2023-04-18T02:25:08.384Z,95779.8438
2023-04-18T02:26:10.107Z,95780.0781
2023-04-18T02:27:11.716Z,95779.8438
2023-04-18T02:28:13.291Z,95780.5391
2023-04-18T02:29:14.942Z,95779.2344
2023-04-18T02:30:16.692Z,95777.1562
2023-04-18T02:31:18.317Z,95775.4609
2023-04-18T02:32:19.912Z,95774.3828
2023-04-18T02:33:21.539Z,95776.0000
2023-04-18T02:34:23.256Z,95775.3047
2023-04-18T02:35:24.845Z,95773.3828
2023-04-18T02:36:26.514Z,95774.2344
2023-04-18T02:37:28.112Z,95774.9219
2023-04-18T02:38:29.828Z,95776.5391
2023-04-18T02:39:31.416Z,95774.6172
2023-04-18T02:40:33.030Z,95773.3047
2023-04-18T02:41:34.767Z,95773.6953
2023-04-18T02:42:36.346Z,95772.8438
2023-04-18T02:43:38.054Z,95774.4609
2023-04-18T02:44:39.616Z,95772.6953
2023-04-18T02:45:41.431Z,95773.4609
2023-04-18T02:46:42.879Z,95772.0781
2023-04-18T02:47:54.785Z,95770.3828
2023-04-18T02:48:46.118Z,95770.8438
2023-04-18T02:49:47.764Z,95771.1562
2023-04-18T02:50:49.396Z,95771.0781
2023-04-18T02:51:51.071Z,95771.4609
2023-04-18T02:52:52.650Z,95772.2344
2023-04-18T02:53:54.295Z,95773.1562
2023-04-18T02:54:55.983Z,95772.5391
2023-04-18T02:55:57.592Z,95772.9219
2023-04-18T02:56:59.269Z,95771.4609
2023-04-18T02:58:00.884Z,95771.3828
2023-04-18T02:59:02.506Z,95772.2344
2023-04-18T03:00:04.182Z,95770.6953
2023-04-18T03:01:05.875Z,95770.7656
2023-04-18T03:02:07.440Z,95770.1562
2023-04-18T03:03:09.140Z,95769.6172
2023-04-18T03:04:10.748Z,95769.1562
2023-04-18T03:05:12.495Z,95769.6172
2023-04-18T03:06:14.084Z,95766.4609
2023-04-18T03:07:15.687Z,95766.3047
2023-04-18T03:08:17.335Z,95767.8438
2023-04-18T03:09:18.971Z,95768.3047
2023-04-18T03:10:20.590Z,95767.0781
2023-04-18T03:11:22.291Z,95764.1562
2023-04-18T03:12:23.948Z,95762.7656
2023-04-18T03:13:25.551Z,95762.3828
2023-04-18T03:14:27.235Z,95764.5391
2023-04-18T03:15:28.874Z,95761.6172
2023-04-18T03:16:30.571Z,95759.0781
2023-04-18T03:17:32.194Z,95759.6953
2023-04-18T03:18:33.969Z,95758.7656
2023-04-18T03:19:35.435Z,95757.8438
2023-04-18T03:20:37.104Z,95758.0000
2023-04-18T03:21:38.762Z,95759.3047
2023-04-18T03:22:40.353Z,95757.6172
2023-04-18T03:23:42.019Z,95756.3828
2023-04-18T03:24:43.635Z,95759.0781
2023-04-18T03:25:45.299Z,95758.0781
2023-04-18T03:26:46.954Z,95759.0000
2023-04-18T03:27:48.580Z,95758.9219
2023-04-18T03:28:50.219Z,95757.3047
2023-04-18T03:29:51.844Z,95759.3828
2023-04-18T03:30:53.596Z,95757.3828
2023-04-18T03:31:55.163Z,95759.0000
2023-04-18T03:32:57.015Z,95758.3828
2023-04-18T03:33:58.433Z,95758.1562
2023-04-18T03:35:00.055Z,95759.0000
2023-04-18T03:36:01.695Z,95759.3828
2023-04-18T03:37:03.392Z,95756.6172
2023-04-18T03:38:04.975Z,95757.5391
2023-04-18T03:39:06.616Z,95757.4609
2023-04-18T03:40:08.234Z,95757.6172
2023-04-18T03:41:09.895Z,95757.0781
2023-04-18T03:42:11.590Z,95758.1562
2023-04-18T03:43:13.178Z,95758.7656
2023-04-18T03:44:15.068Z,95755.6172
2023-04-18T03:45:16.458Z,95756.5391
2023-04-18T03:46:18.124Z,95757.3047
2023-04-18T03:47:20.078Z,95757.0781
2023-04-18T03:48:21.422Z,95756.0781
2023-04-18T03:49:23.052Z,95755.4609
2023-04-18T03:50:24.683Z,95756.0781
2023-04-18T03:51:26.330Z,95756.0000
2023-04-18T03:52:29.700Z,95756.6953
2023-04-18T03:53:29.655Z,95756.3828
2023-04-18T03:54:31.280Z,95754.0000
2023-04-18T03:55:32.904Z,95754.0781
2023-04-18T03:56:34.539Z,95754.0000
2023-04-18T03:57:36.196Z,95754.4609
2023-04-18T03:58:37.855Z,95752.0781
2023-04-18T03:59:39.481Z,95752.8438
2023-04-18T04:00:41.140Z,95753.3828
2023-04-18T04:01:42.950Z,95754.5391
2023-04-18T04:02:44.582Z,95753.5391
2023-04-18T04:03:46.238Z,95753.3047
2023-04-18T04:04:48.012Z,95752.7656
2023-04-18T04:05:49.343Z,95751.9219
2023-04-18T04:06:50.979Z,95753.4609
2023-04-18T04:07:52.622Z,95751.6172
2023-04-18T04:08:54.318Z,95752.0000
2023-04-18T04:09:55.947Z,95752.0000
2023-04-18T04:10:57.578Z,95753.6953
2023-04-18T04:11:59.239Z,95752.4609
2023-04-18T04:13:00.821Z,95752.6953
2023-04-18T04:14:02.521Z,95752.0000
2023-04-18T04:15:04.140Z,95752.0000
2023-04-18T04:16:05.863Z,95752.3828
2023-04-18T04:17:07.407Z,95753.4609
2023-04-18T04:18:09.144Z,95754.3828
2023-04-18T04:19:10.740Z,95754.1562
2023-04-18T04:20:12.367Z,95755.6172
2023-04-18T04:21:14.031Z,95756.4609
2023-04-18T04:22:15.671Z,95757.5391
2023-04-18T04:23:17.314Z,95757.0000
2023-04-18T04:24:18.985Z,95757.1562
2023-04-18T04:25:20.582Z,95758.4609
2023-04-18T04:26:22.263Z,95757.7656
2023-04-18T04:27:23.843Z,95760.2344
2023-04-18T04:28:25.622Z,95759.2344
2023-04-18T04:29:27.176Z,95761.9219
2023-04-18T04:30:28.800Z,95758.2344
2023-04-18T04:31:30.509Z,95758.2344
2023-04-18T04:32:32.133Z,95760.2344
2023-04-18T04:33:33.773Z,95760.8438
2023-04-18T04:34:35.434Z,95759.9219
2023-04-18T04:35:37.027Z,95761.0781
2023-04-18T04:36:38.675Z,95761.4609
2023-04-18T04:37:40.297Z,95762.0000
2023-04-18T04:38:41.954Z,95761.7656
2023-04-18T04:39:43.658Z,95761.5391
2023-04-18T04:40:45.236Z,95762.0781
2023-04-18T04:41:46.883Z,95763.3828
2023-04-18T04:42:48.543Z,95764.5391
2023-04-18T04:43:50.197Z,95766.3828
2023-04-18T04:44:51.901Z,95765.1562
2023-04-18T04:45:53.536Z,95768.1562
2023-04-18T04:46:55.137Z,95769.3047
2023-04-18T04:47:56.747Z,95769.1562
2023-04-18T04:48:58.493Z,95770.0000
2023-04-18T04:50:00.025Z,95769.3047
2023-04-18T04:51:01.699Z,95770.3047
2023-04-18T04:52:03.375Z,95771.3047
2023-04-18T04:53:04.980Z,95770.3828
2023-04-18T04:54:06.592Z,95771.3047
2023-04-18T04:55:08.283Z,95771.6953
2023-04-18T04:56:09.918Z,95771.0781
2023-04-18T04:57:11.561Z,95770.7656
2023-04-18T04:58:13.202Z,95772.3047
2023-04-18T04:59:14.872Z,95773.1562
2023-04-18T05:00:16.490Z,95772.4609
2023-04-18T05:01:18.166Z,95771.5391
2023-04-18T05:02:19.831Z,95772.6953
2023-04-18T05:03:21.522Z,95772.3047
2023-04-18T05:04:23.257Z,95772.8438
2023-04-18T05:05:24.676Z,95773.3047
2023-04-18T05:06:26.349Z,95772.0781
2023-04-18T05:07:27.995Z,95773.8438
2023-04-18T05:08:29.594Z,95774.6953
2023-04-18T05:09:31.318Z,95775.7656
2023-04-18T05:10:32.901Z,95776.5391
2023-04-18T05:11:34.612Z,95776.5391
2023-04-18T05:12:36.191Z,95776.9219
2023-04-18T05:13:37.833Z,95775.2344
2023-04-18T05:14:39.524Z,95775.8438
2023-04-18T05:15:41.269Z,95776.0781
2023-04-18T05:16:42.799Z,95777.0000
2023-04-18T05:17:44.468Z,95777.0000
2023-04-18T05:18:46.059Z,95776.5391
2023-04-18T05:19:47.750Z,95776.4609
2023-04-18T05:20:49.326Z,95777.4609
2023-04-18T05:21:51.137Z,95777.3828
2023-04-18T05:22:52.589Z,95778.3828
2023-04-18T05:23:54.278Z,95778.6172
2023-04-18T05:24:55.912Z,95778.9219
2023-04-18T05:25:57.564Z,95778.9219
2023-04-18T05:26:59.176Z,95778.5391
2023-04-18T05:28:00.840Z,95779.7656
2023-04-18T05:29:02.455Z,95781.9219
2023-04-18T05:30:04.179Z,95781.3828
2023-04-18T05:31:05.769Z,95779.8438
2023-04-18T05:32:07.398Z,95782.2344
2023-04-18T05:33:09.026Z,95780.7656
2023-04-18T05:34:10.664Z,95780.4609
2023-04-18T05:35:12.386Z,95780.5391
2023-04-18T05:36:13.999Z,95781.3047
2023-04-18T05:37:15.652Z,95782.5391
2023-04-18T05:38:17.279Z,95782.6953
2023-04-18T05:39:18.957Z,95783.7656
2023-04-18T05:40:20.601Z,95785.1562
2023-04-18T05:41:22.224Z,95786.5391
2023-04-18T05:42:23.886Z,95786.6172
2023-04-18T05:43:25.514Z,95786.7656
2023-04-18T05:44:27.161Z,95786.5391
2023-04-18T05:45:28.929Z,95787.6172
2023-04-18T05:46:31.199Z,95788.3047
2023-04-18T05:47:32.210Z,95789.4609
2023-04-18T05:48:33.821Z,95789.7656
2023-04-18T05:49:35.497Z,95788.4609
2023-04-18T05:50:37.171Z,95789.3047
2023-04-18T05:51:38.765Z,95788.5391
2023-04-18T05:52:40.393Z,95788.3828
2023-04-18T05:53:42.060Z,95788.7656
2023-04-18T05:54:43.763Z,95789.1562
2023-04-18T05:55:45.408Z,95789.2344
2023-04-18T05:56:47.034Z,95789.7656
2023-04-18T05:57:48.624Z,95790.3828
2023-04-18T05:58:50.274Z,95789.9219
2023-04-18T05:59:51.907Z,95790.8438
2023-04-18T06:00:53.630Z,95791.0000
2023-04-18T06:01:55.274Z,95791.5391
2023-04-18T06:02:57.056Z,95791.0781
2023-04-18T06:03:58.640Z,95791.0000
2023-04-18T06:05:00.436Z,95791.6953
2023-04-18T06:06:01.972Z,95792.3828
2023-04-18T06:07:03.440Z,95793.7656
2023-04-18T06:08:05.098Z,95793.9219
2023-04-18T06:09:06.739Z,95794.7656
2023-04-18T06:10:08.384Z,95795.1562
2023-04-18T06:11:10.149Z,95795.3047
2023-04-18T06:12:11.772Z,95796.3047
2023-04-18T06:13:13.312Z,95796.7656
2023-04-18T06:14:15.483Z,95797.0000
2023-04-18T06:15:16.582Z,95798.2344
2023-04-18T06:16:18.338Z,95798.7656
2023-04-18T06:17:19.834Z,95800.3828
2023-04-18T06:18:21.506Z,95801.6953
2023-04-18T06:19:23.193Z,95803.0781
2023-04-18T06:20:24.781Z,95803.6172
2023-04-18T06:21:26.502Z,95804.7656
2023-04-18T06:22:28.051Z,95804.7656
2023-04-18T06:23:29.919Z,95805.2344
2023-04-18T06:24:31.402Z,95805.4609
2023-04-18T06:25:33.020Z,95806.3828
2023-04-18T06:26:34.771Z,95806.2344
2023-04-18T06:27:36.305Z,95808.6953
2023-04-18T06:28:37.973Z,95808.0781
2023-04-18T06:29:39.588Z,95809.7656
2023-04-18T06:30:41.237Z,95809.4609
2023-04-18T06:31:42.998Z,95808.3047
2023-04-18T06:32:44.557Z,95809.0000
2023-04-18T06:33:46.209Z,95809.1562
2023-04-18T06:34:47.779Z,95810.1562
2023-04-18T06:35:49.475Z,95808.5391
2023-04-18T06:36:51.208Z,95807.3828
2023-04-18T06:37:52.628Z,95807.3047
2023-04-18T06:38:54.315Z,95807.0000
2023-04-18T06:39:55.944Z,95806.9219
2023-04-18T06:40:57.570Z,95808.6953
2023-04-18T06:41:59.247Z,95808.3047
2023-04-18T06:43:00.853Z,95808.9219
2023-04-18T06:44:04.464Z,95810.6172
2023-04-18T06:45:04.126Z,95810.7656
2023-04-18T06:46:05.867Z,95812.0000
2023-04-18T06:47:07.428Z,95811.3828
2023-04-18T06:48:09.166Z,95811.1562
2023-04-18T06:49:10.724Z,95810.6953
2023-04-18T06:50:12.338Z,95810.1562
2023-04-18T06:51:13.960Z,95810.4609
2023-04-18T06:52:15.660Z,95811.0000
2023-04-18T06:53:17.265Z,95810.9219
2023-04-18T06:54:18.907Z,95811.1562
2023-04-18T06:55:20.530Z,95812.0000
2023-04-18T06:56:22.184Z,95812.2344
2023-04-18T06:57:23.847Z,95813.0000
2023-04-18T06:58:25.456Z,95814.2344
2023-04-18T06:59:27.143Z,95814.1562
2023-04-18T07:00:28.857Z,95813.1562
2023-04-18T07:01:30.461Z,95811.5391
2023-04-18T07:02:32.168Z,95811.6953
2023-04-18T07:03:33.800Z,95812.6953
2023-04-18T07:04:35.338Z,95812.2344
2023-04-18T07:05:36.972Z,95811.6953
2023-04-18T07:06:38.605Z,95812.9219
2023-04-18T07:07:40.298Z,95812.7656
2023-04-18T07:08:41.917Z,95814.0781
2023-04-18T07:09:43.534Z,95814.4609
2023-04-18T07:10:45.152Z,95813.8438
2023-04-18T07:11:46.835Z,95813.0000
2023-04-18T07:12:48.521Z,95812.1562
2023-04-18T07:13:50.132Z,95813.4609
2023-04-18T07:14:51.729Z,95815.0000
2023-04-18T07:15:53.407Z,95813.8438
2023-04-18T07:16:55.052Z,95813.8438
2023-04-18T07:17:56.742Z,95813.2344
2023-04-18T07:18:58.318Z,95814.9219
2023-04-18T07:19:59.945Z,95814.4609
2023-04-18T07:21:01.572Z,95813.3047
2023-04-18T07:22:03.215Z,95811.0781
2023-04-18T07:23:04.882Z,95811.8438
2023-04-18T07:24:06.541Z,95812.0000
2023-04-18T07:25:08.163Z,95812.8438
2023-04-18T07:26:09.793Z,95812.5391
2023-04-18T07:27:11.478Z,95813.5391
2023-04-18T07:28:13.147Z,95813.8438
2023-04-18T07:29:14.768Z,95814.8438
2023-04-18T07:30:16.357Z,95814.8438
2023-04-18T07:31:18.064Z,95813.6172
2023-04-18T07:32:19.681Z,95815.7656
2023-04-18T07:33:21.348Z,95818.2344
2023-04-18T07:34:23.008Z,95818.0781
2023-04-18T07:35:24.553Z,95818.4609
2023-04-18T07:36:26.317Z,95819.8438
2023-04-18T07:37:27.931Z,95820.0000
2023-04-18T07:38:29.576Z,95818.0781
2023-04-18T07:39:31.169Z,95819.4609
2023-04-18T07:40:32.781Z,95820.6172
2023-04-18T07:41:34.446Z,95823.8438
2023-04-18T07:42:36.072Z,95822.9219
2023-04-18T07:43:37.774Z,95822.0000
2023-04-18T07:44:39.328Z,95822.0000
2023-04-18T07:45:41.032Z,95822.0781
2023-04-18T07:46:42.736Z,95822.6172
2023-04-18T07:47:44.340Z,95823.5391
2023-04-18T07:48:45.946Z,95822.5391
2023-04-18T07:49:47.555Z,95824.8438
2023-04-18T07:50:49.207Z,95824.4609
2023-04-18T07:51:50.856Z,95822.3047
2023-04-18T07:52:52.472Z,95822.5391
2023-04-18T07:53:54.158Z,95824.0000
2023-04-18T07:54:55.772Z,95824.2344
2023-04-18T07:55:57.389Z,95824.5391
2023-04-18T07:56:59.021Z,95824.0781
2023-04-18T07:58:00.664Z,95826.6953
2023-04-18T07:59:02.385Z,95831.1562
2023-04-18T08:00:03.950Z,95831.9219
2023-04-18T08:01:05.602Z,95833.2344
2023-04-18T08:02:07.284Z,95830.8438
2023-04-18T08:03:09.036Z,95830.6172
2023-04-18T08:04:10.722Z,95831.6172
2023-04-18T08:05:12.234Z,95834.8438
2023-04-18T08:06:13.809Z,95835.3828
2023-04-18T08:07:15.414Z,95835.0781
2023-04-18T08:08:17.115Z,95835.4609
2023-04-18T08:09:18.683Z,95834.0781
2023-04-18T08:10:21.357Z,95833.0000
2023-04-18T08:11:21.978Z,95834.9219
2023-04-18T08:12:23.582Z,95835.9219
2023-04-18T08:13:25.250Z,95833.6172
2023-04-18T08:14:26.856Z,95834.8438
2023-04-18T08:15:28.509Z,95835.3828
2023-04-18T08:16:30.197Z,95834.3047
2023-04-18T08:17:31.835Z,95836.0000
2023-04-18T08:18:33.452Z,95835.8438
2023-04-18T08:19:35.045Z,95838.6953
2023-04-18T08:20:36.703Z,95836.8438
2023-04-18T08:21:38.298Z,95834.6172
2023-04-18T08:22:53.830Z,95833.1562
2023-04-18T08:23:41.638Z,95838.0781
2023-04-18T08:25:01.052Z,95838.0781
2023-04-18T08:25:44.818Z,95838.0781
2023-04-18T08:26:46.524Z,95837.6172
2023-04-18T08:27:48.147Z,95837.3828
2023-04-18T08:28:49.773Z,95836.0781
2023-04-18T08:29:51.396Z,95837.0000
2023-04-18T08:30:53.053Z,95836.0781
2023-04-18T08:31:54.690Z,95833.1562
2023-04-18T08:32:56.301Z,95834.9219
2023-04-18T08:33:57.936Z,95837.1562
2023-04-18T08:34:59.570Z,95838.6953
2023-04-18T08:36:01.235Z,95841.9219
2023-04-18T08:37:02.827Z,95844.3828
2023-04-18T08:38:04.452Z,95845.1562
2023-04-18T08:39:06.167Z,95844.0000
2023-04-18T08:40:07.783Z,95845.0000
2023-04-18T08:41:09.376Z,95841.3047
2023-04-18T08:42:11.049Z,95845.8438
2023-04-18T08:43:12.657Z,95845.4609
2023-04-18T08:44:14.552Z,95844.0781
2023-04-18T08:45:15.946Z,95846.4609
2023-04-18T08:46:17.619Z,95845.4609
2023-04-18T08:47:19.203Z,95845.9219
2023-04-18T08:48:20.833Z,95846.2344
2023-04-18T08:49:22.499Z,95842.4609
2023-04-18T08:50:24.181Z,95846.2344
2023-04-18T08:51:25.753Z,95845.7656
2023-04-18T08:52:27.410Z,95844.0000
2023-04-18T08:53:28.998Z,95847.0000
2023-04-18T08:54:30.708Z,95848.4609
2023-04-18T08:55:32.289Z,95849.3047
2023-04-18T08:56:34.038Z,95849.2344
2023-04-18T08:57:35.585Z,95847.6953
2023-04-18T08:58:37.322Z,95850.8438
2023-04-18T08:59:39.074Z,95854.0000
2023-04-18T09:00:40.550Z,95852.1562
2023-04-18T09:01:42.245Z,95849.0781
2023-04-18T09:02:44.270Z,95851.4609
2023-04-18T09:03:45.465Z,95852.3047
2023-04-18T09:04:47.128Z,95853.4609
2023-04-18T09:05:48.735Z,95853.0781
2023-04-18T09:06:50.369Z,95850.0781
2023-04-18T09:07:52.042Z,95850.0781
2023-04-18T09:08:53.644Z,95853.0781
2023-04-18T09:09:55.286Z,95853.9219
2023-04-18T09:10:56.889Z,95856.6953
2023-04-18T09:11:58.527Z,95851.5391
2023-04-18T09:13:00.134Z,95854.6172
2023-04-18T09:14:01.776Z,95853.5391
2023-04-18T09:15:03.442Z,95852.7656
2023-04-18T09:16:05.065Z,95853.8438
2023-04-18T09:17:06.878Z,95851.3828
2023-04-18T09:18:08.396Z,95851.8438
2023-04-18T09:19:09.941Z,95853.2344
2023-04-18T09:20:11.627Z,95852.1562
2023-04-18T09:21:13.203Z,95852.1562
2023-04-18T09:22:14.852Z,95849.5391
2023-04-18T09:23:16.483Z,95851.9219
2023-04-18T09:24:18.191Z,95850.1562
2023-04-18T09:25:19.791Z,95849.1562
2023-04-18T09:26:21.277Z,95851.1562
2023-04-18T09:27:22.964Z,95850.7656
2023-04-18T09:28:24.576Z,95851.0000
2023-04-18T09:29:26.224Z,95848.9219
2023-04-18T09:30:27.912Z,95845.6953
2023-04-18T09:31:29.503Z,95847.7656
2023-04-18T09:32:31.171Z,95849.0000
2023-04-18T09:33:32.772Z,95849.3828
2023-04-18T09:34:34.376Z,95851.0781
2023-04-18T09:35:36.049Z,95853.6953
2023-04-18T09:36:37.741Z,95857.0781
2023-04-18T09:37:39.341Z,95849.8438
2023-04-18T09:38:41.204Z,95851.3047
2023-04-18T09:39:42.633Z,95852.6953
2023-04-18T09:40:44.459Z,95853.6172
2023-04-18T09:41:45.905Z,95854.1562
2023-04-18T09:42:47.499Z,95852.3828
2023-04-18T09:43:49.194Z,95851.7656
2023-04-18T09:44:50.729Z,95853.3828
2023-04-18T09:45:52.416Z,95856.2344
2023-04-18T09:46:54.013Z,95858.8438
2023-04-18T09:47:55.695Z,95863.7656
2023-04-18T09:48:57.264Z,95861.6172
2023-04-18T09:49:58.896Z,95860.1562
2023-04-18T09:51:00.568Z,95857.7656
2023-04-18T09:52:02.146Z,95859.1562
2023-04-18T09:53:03.832Z,95857.9219
2023-04-18T09:54:05.442Z,95861.7656
2023-04-18T09:55:07.061Z,95864.0781
2023-04-18T09:56:08.737Z,95866.4609
2023-04-18T09:57:10.340Z,95866.4609
2023-04-18T09:58:11.946Z,95861.0781
2023-04-18T09:59:13.788Z,95862.0000
2023-04-18T10:00:15.235Z,95859.1562
2023-04-18T10:01:16.920Z,95857.8438
2023-04-18T10:02:19.353Z,95858.5391
2023-04-18T10:03:20.326Z,95857.7656
2023-04-18T10:04:21.958Z,95855.5391
2023-04-18T10:05:23.514Z,95857.1562
2023-04-18T10:06:25.211Z,95857.6953
2023-04-18T10:07:26.673Z,95859.6172
2023-04-18T10:08:28.293Z,95858.5391
2023-04-18T10:09:29.948Z,95857.8438
2023-04-18T10:10:31.578Z,95857.4609
2023-04-18T10:11:33.231Z,95865.8438
2023-04-18T10:12:34.852Z,95864.1562
2023-04-18T10:13:36.490Z,95859.3047
2023-04-18T10:14:38.111Z,95860.3828
2023-04-18T10:15:40.749Z,95860.7656
2023-04-18T10:16:41.499Z,95862.6172
2023-04-18T10:17:56.012Z,95866.8438
2023-04-18T10:18:44.706Z,95863.5391
2023-04-18T10:19:46.287Z,95863.7656
2023-04-18T10:20:47.955Z,95860.6172
2023-04-18T10:21:49.607Z,95861.6953
2023-04-18T10:22:51.252Z,95865.4609
2023-04-18T10:23:52.880Z,95865.1562
2023-04-18T10:24:54.540Z,95861.3828
2023-04-18T10:25:56.148Z,95862.9219
2023-04-18T10:26:57.827Z,95861.5391
2023-04-18T10:27:59.407Z,95863.3828
2023-04-18T10:29:01.056Z,95862.6953
2023-04-18T10:30:02.688Z,95868.9219
2023-04-18T10:31:04.412Z,95867.5391
2023-04-18T10:32:06.012Z,95867.2344
2023-04-18T10:33:10.592Z,95868.2344
2023-04-18T10:34:09.251Z,95871.4609
2023-04-18T10:35:10.912Z,95867.9219
2023-04-18T10:36:12.537Z,95868.9219
2023-04-18T10:37:14.218Z,95865.9219
2023-04-18T10:38:15.823Z,95867.0781
2023-04-18T10:39:17.493Z,95862.4609
2023-04-18T10:40:19.103Z,95866.0000
2023-04-18T10:41:20.752Z,95862.6953
2023-04-18T10:42:22.561Z,95860.5391
2023-04-18T10:43:24.118Z,95864.9219
2023-04-18T10:44:25.748Z,95861.6172
2023-04-18T10:45:27.387Z,95862.1562
2023-04-18T10:46:32.458Z,95859.9219
2023-04-18T10:47:30.860Z,95858.0000
2023-04-18T10:48:32.329Z,95858.0781
2023-04-18T10:49:33.959Z,95856.4609
2023-04-18T10:50:35.615Z,95852.9219
2023-04-18T10:51:37.321Z,95850.1562
2023-04-18T10:52:38.976Z,95853.2344
2023-04-18T10:53:40.559Z,95861.9219
2023-04-18T10:54:42.167Z,95855.2344
2023-04-18T10:55:43.806Z,95851.8438
2023-04-18T10:56:45.509Z,95850.6953
2023-04-18T10:57:47.299Z,95849.0781
2023-04-18T10:58:48.791Z,95844.4609
2023-04-18T10:59:50.442Z,95843.9219
2023-04-18T11:00:52.084Z,95846.5391
2023-04-18T11:01:53.783Z,95846.5391
2023-04-18T11:02:55.489Z,95842.0781
2023-04-18T11:03:57.170Z,95846.6953
2023-04-18T11:04:58.597Z,95846.6953
2023-04-18T11:06:00.245Z,95845.7656
2023-04-18T11:07:01.889Z,95842.5391
2023-04-18T11:08:03.669Z,95848.4609
2023-04-18T11:09:05.139Z,95846.3047
2023-04-18T11:10:06.806Z,95841.5391
2023-04-18T11:11:08.457Z,95842.0781
2023-04-18T11:12:10.069Z,95845.1562
2023-04-18T11:13:11.735Z,95840.9219
2023-04-18T11:14:13.523Z,95842.1562
2023-04-18T11:15:14.984Z,95839.8438
2023-04-18T11:16:16.674Z,95841.0000
2023-04-18T11:17:18.289Z,95838.0000
2023-04-18T11:18:19.960Z,95838.8438
2023-04-18T11:19:21.528Z,95840.2344
2023-04-18T11:20:23.095Z,95837.1562
2023-04-18T11:21:24.757Z,95842.6953
2023-04-18T11:22:26.360Z,95839.3047
2023-04-18T11:23:28.100Z,95834.0781